createdAt,value
2019-01-04T00:05:58.436Z,2.40
2019-01-04T00:16:03.091Z,2.50
2019-01-04T00:26:06.666Z,2.40
2019-01-04T00:36:10.250Z,2.40
2019-01-04T00:46:13.815Z,2.40
2019-01-04T00:57:04.138Z,2.50
2019-01-04T01:07:48.045Z,2.50
2019-01-04T01:18:33.110Z,2.80
2019-01-04T01:28:51.334Z,3.10
2019-01-04T01:39:32.872Z,3.20
2019-01-04T01:50:13.311Z,3.40
2019-01-04T02:00:16.885Z,3.50
2019-01-04T02:10:20.685Z,3.60
2019-01-04T02:20:24.498Z,3.80
2019-01-04T02:30:28.068Z,3.90
2019-01-04T02:40:31.639Z,4.00
2019-01-04T02:50:35.211Z,4.10
2019-01-04T03:00:38.856Z,4.20
2019-01-04T03:10:42.442Z,4.20
2019-01-04T03:20:46.018Z,4.10
2019-01-04T03:30:49.591Z,4.20
2019-01-04T03:40:53.166Z,4.20
2019-01-04T03:50:56.978Z,4.10
2019-01-04T04:01:00.538Z,4.10
2019-01-04T04:11:04.145Z,4.00
2019-01-04T04:21:07.750Z,4.10
2019-01-04T04:31:11.314Z,4.20
2019-01-04T04:41:14.894Z,4.30
2019-01-04T04:51:18.478Z,4.30
2019-01-04T05:01:22.050Z,4.40
2019-01-04T05:11:25.635Z,4.30
2019-01-04T05:21:29.217Z,4.30
2019-01-04T05:31:32.787Z,4.40
2019-01-04T05:41:36.367Z,4.40
2019-01-04T05:51:40.175Z,4.50
2019-01-04T06:01:43.743Z,4.50
2019-01-04T06:11:47.314Z,4.60
2019-01-04T06:21:50.895Z,4.70
2019-01-04T06:31:54.467Z,4.60
2019-01-04T06:41:58.035Z,4.60
2019-01-04T06:52:01.618Z,4.70
2019-01-04T07:02:05.188Z,4.70
2019-01-04T07:12:08.755Z,4.70
2019-01-04T07:22:12.327Z,4.80
2019-01-04T07:32:15.895Z,4.80
2019-01-04T07:42:19.462Z,4.80
2019-01-04T07:52:23.047Z,4.80
2019-01-04T08:02:38.903Z,4.90
2019-01-04T08:12:42.675Z,5.00
2019-01-04T08:22:46.247Z,5.00
2019-01-04T08:32:49.822Z,5.20
2019-01-04T08:42:53.391Z,5.20
2019-01-04T08:52:57.047Z,5.30
2019-01-04T09:03:00.613Z,5.40
2019-01-04T09:13:06.490Z,5.40
2019-01-04T09:23:13.275Z,5.40
2019-01-04T09:33:16.833Z,5.40
2019-01-04T09:43:20.403Z,5.50
2019-01-04T09:53:23.990Z,5.50
2019-01-04T10:03:27.551Z,5.50
2019-01-04T10:13:31.126Z,5.50
2019-01-04T10:23:34.698Z,5.50
2019-01-04T10:33:38.270Z,5.60
2019-01-04T10:43:41.846Z,5.50
2019-01-04T10:53:45.426Z,5.60
2019-01-04T11:03:49.907Z,5.70
2019-01-04T11:13:53.647Z,5.90
2019-01-04T11:24:29.258Z,5.90
2019-01-04T11:34:58.082Z,6.00
2019-01-04T11:45:22.802Z,6.10
2019-01-04T11:55:26.394Z,6.10
2019-01-04T12:05:29.970Z,6.00
2019-01-04T12:15:33.546Z,6.10
2019-01-04T12:25:37.121Z,6.10
2019-01-04T12:35:40.702Z,6.10
2019-01-04T12:45:44.277Z,6.10
2019-01-04T12:55:47.858Z,6.20
2019-01-04T13:05:51.423Z,6.20
2019-01-04T13:15:54.985Z,6.20
2019-01-04T13:25:58.563Z,6.20
2019-01-04T13:36:02.143Z,6.30
2019-01-04T13:46:05.719Z,6.40
2019-01-04T13:56:09.305Z,6.50
2019-01-04T14:06:12.879Z,6.60
2019-01-04T14:16:16.455Z,6.70
2019-01-04T14:26:20.020Z,6.70
2019-01-04T14:36:23.839Z,6.80
2019-01-04T14:46:27.578Z,6.80
2019-01-04T14:56:31.982Z,6.80
2019-01-04T15:06:35.550Z,6.90
2019-01-04T15:16:39.123Z,6.90
2019-01-04T15:26:42.702Z,6.90
2019-01-04T15:36:46.289Z,6.90
2019-01-04T15:46:49.865Z,7.00
2019-01-04T15:56:53.442Z,7.00
2019-01-04T16:06:57.159Z,7.00
2019-01-04T16:17:00.727Z,7.00
2019-01-04T16:27:04.283Z,7.10
2019-01-04T16:37:07.851Z,7.00
2019-01-04T16:47:11.433Z,7.10
2019-01-04T16:57:15.045Z,7.10
2019-01-04T17:07:18.666Z,7.10
2019-01-04T17:17:22.243Z,7.10
2019-01-04T17:27:25.925Z,7.20
2019-01-04T17:37:29.501Z,7.20
2019-01-04T17:47:33.066Z,7.20
2019-01-04T17:57:36.645Z,7.20
2019-01-04T18:07:40.209Z,7.20
2019-01-04T18:17:46.086Z,7.30
2019-01-04T18:27:49.650Z,7.30
2019-01-04T18:37:53.218Z,7.30
2019-01-04T18:47:56.840Z,7.30
2019-01-04T18:58:00.478Z,7.30
2019-01-04T19:08:04.287Z,7.30
2019-01-04T19:18:07.864Z,7.30
2019-01-04T19:28:11.502Z,7.30
2019-01-04T19:38:15.087Z,7.30
2019-01-04T19:48:18.727Z,7.40
2019-01-04T19:58:22.314Z,7.40
2019-01-04T20:09:20.391Z,7.40
2019-01-04T20:19:41.767Z,7.40
2019-01-04T20:30:13.559Z,7.50
2019-01-04T20:40:42.595Z,7.50
2019-01-04T20:51:17.255Z,7.60
2019-01-04T21:01:39.918Z,7.60
2019-01-04T21:12:01.137Z,7.70
2019-01-04T21:22:21.594Z,7.70
2019-01-04T21:32:40.258Z,7.70
2019-01-04T21:42:58.350Z,7.70
2019-01-04T21:53:30.305Z,7.80
2019-01-04T22:03:59.106Z,7.80
2019-01-04T22:14:21.069Z,7.80
2019-01-04T22:24:56.782Z,7.90
2019-01-04T22:35:18.638Z,7.90
2019-01-04T22:45:52.389Z,8.00
2019-01-04T22:56:11.951Z,8.00
2019-01-04T23:07:06.161Z,8.00
2019-01-04T23:17:27.541Z,8.00
2019-01-04T23:27:50.291Z,8.00
2019-01-04T23:38:11.585Z,8.10
2019-01-04T23:48:49.602Z,8.10
2019-01-04T23:59:08.970Z,8.10
